Time;durP1;ratioP1;P1;durP2;ratioP2;P2;SDS_P1;SDS_P2;PMS_P1;PMS_P2;Temp;Humidity;BMP_temperature;BMP_pressure;BME280_temperature;BME280_humidity;BME280_pressure;Samples;Min_cycle;Max_cycle;Signal;HPM_P1;HPM_P2
2021/06/09 00:00:53;;;;;;;;;;;24.10;47.30;;;;;;1530012;76;1162;-65
2021/06/09 00:02:54;;;;;;;;;;;24.10;47.20;;;;;;1535420;76;873;-66
2021/06/09 00:04:56;;;;;;;;;;;24.10;47.20;;;;;;1532379;76;568;-65
2021/06/09 00:06:58;;;;;;;;;;;24.10;47.30;;;;;;1533092;77;771;-67
2021/06/09 00:09:00;;;;;;;;;;;24.10;47.20;;;;;;1530803;76;672;-66
2021/06/09 00:11:02;;;;;;;;;;;24.10;47.20;;;;;;1527700;76;1157;-64
2021/06/09 00:13:04;;;;;;;;;;;24.20;47.40;;;;;;1530255;76;1959;-65
2021/06/09 00:15:07;;;;;;;;;;;24.00;47.10;;;;;;1524618;76;725;-64
2021/06/09 00:17:09;;;;;;;;;;;24.10;47.30;;;;;;1538865;76;714;-65
2021/06/09 00:19:11;;;;;;;;;;;24.10;47.20;;;;;;1539555;76;931;-66
2021/06/09 00:21:13;;;;;;;;;;;24.10;47.10;;;;;;1533868;76;1124;-68
2021/06/09 00:23:17;;;;;;;;;;;24.10;47.10;;;;;;1538487;76;759;-70
2021/06/09 00:25:18;;;;;;;;;;;24.00;47.10;;;;;;1532379;76;1769;-65
2021/06/09 00:27:20;;;;;;;;;;;24.10;46.90;;;;;;1530161;76;706;-64
2021/06/09 00:29:22;;;;;;;;;;;24.10;46.80;;;;;;1522155;76;783;-65
2021/06/09 00:31:24;;;;;;;;;;;24.00;46.70;;;;;;1522558;76;1117;-69
2021/06/09 00:33:26;;;;;;;;;;;24.00;46.90;;;;;;1534896;76;1942;-65
2021/06/09 00:35:28;;;;;;;;;;;24.10;47.10;;;;;;1539820;76;802;-65
2021/06/09 00:37:30;;;;;;;;;;;24.00;47.10;;;;;;1534892;76;703;-66
2021/06/09 00:39:32;;;;;;;;;;;24.10;47.10;;;;;;1540613;76;1159;-68
2021/06/09 00:41:35;;;;;;;;;;;24.10;46.80;;;;;;1524670;75;730;-63
2021/06/09 00:43:37;;;;;;;;;;;24.10;46.60;;;;;;1534059;75;829;-65
2021/06/09 00:45:40;;;;;;;;;;;24.00;46.50;;;;;;1527424;75;768;-65
2021/06/09 00:47:42;;;;;;;;;;;24.00;46.40;;;;;;1533149;75;788;-65
2021/06/09 00:49:44;;;;;;;;;;;24.10;46.50;;;;;;1531118;75;1143;-64
2021/06/09 00:51:45;;;;;;;;;;;24.10;46.40;;;;;;1536413;75;800;-63
2021/06/09 00:53:53;;;;;;;;;;;24.00;46.30;;;;;;1528990;75;1938;-63
2021/06/09 00:55:55;;;;;;;;;;;24.00;46.30;;;;;;1533569;75;1829;-63
2021/06/09 00:57:57;;;;;;;;;;;24.00;46.20;;;;;;1529123;75;610;-64
2021/06/09 00:59:58;;;;;;;;;;;24.00;46.20;;;;;;1518976;75;1143;-62
2021/06/09 01:02:00;;;;;;;;;;;24.00;46.70;;;;;;1523874;75;726;-65
2021/06/09 01:04:03;;;;;;;;;;;24.00;46.50;;;;;;1531778;76;942;-65
2021/06/09 01:06:06;;;;;;;;;;;24.00;46.50;;;;;;1532729;75;822;-64
2021/06/09 01:08:08;;;;;;;;;;;24.00;46.30;;;;;;1538090;75;849;-70
2021/06/09 01:10:10;;;;;;;;;;;24.00;46.30;;;;;;1534787;75;1185;-66
2021/06/09 01:12:12;;;;;;;;;;;24.00;46.30;;;;;;1532914;75;740;-67
2021/06/09 01:14:14;;;;;;;;;;;24.00;46.30;;;;;;1535882;75;1952;-66
2021/06/09 01:16:16;;;;;;;;;;;24.00;46.20;;;;;;1519468;75;821;-63
2021/06/09 01:18:18;;;;;;;;;;;24.00;46.40;;;;;;1522087;75;710;-64
2021/06/09 01:20:20;;;;;;;;;;;24.10;46.50;;;;;;1530584;76;1192;-64
2021/06/09 01:22:22;;;;;;;;;;;24.00;46.40;;;;;;1524413;75;768;-65
2021/06/09 01:24:24;;;;;;;;;;;24.00;46.90;;;;;;1528214;75;929;-66
2021/06/09 01:26:26;;;;;;;;;;;24.00;47.10;;;;;;1527419;75;720;-66
2021/06/09 01:28:28;;;;;;;;;;;24.10;46.50;;;;;;1530976;75;745;-63
2021/06/09 01:30:30;;;;;;;;;;;24.00;47.00;;;;;;1537641;75;1138;-65
2021/06/09 01:32:32;;;;;;;;;;;24.00;46.20;;;;;;1530792;75;739;-66
2021/06/09 01:34:34;;;;;;;;;;;24.00;46.20;;;;;;1530751;75;1906;-65
2021/06/09 01:36:37;;;;;;;;;;;24.00;46.20;;;;;;1528637;75;744;-65
2021/06/09 01:38:39;;;;;;;;;;;24.00;46.30;;;;;;1532983;75;661;-66
2021/06/09 01:40:40;;;;;;;;;;;24.00;46.10;;;;;;1529416;76;1191;-65
2021/06/09 01:42:42;;;;;;;;;;;24.00;45.90;;;;;;1535311;75;791;-64
2021/06/09 01:44:44;;;;;;;;;;;23.90;45.90;;;;;;1533856;75;742;-65
2021/06/09 01:46:46;;;;;;;;;;;24.00;46.00;;;;;;1533625;75;800;-67
2021/06/09 01:48:48;;;;;;;;;;;24.00;46.00;;;;;;1535897;75;798;-63
2021/06/09 01:50:50;;;;;;;;;;;24.00;46.00;;;;;;1535727;75;1170;-64
2021/06/09 01:52:52;;;;;;;;;;;24.00;46.00;;;;;;1537566;75;715;-64
2021/06/09 01:54:54;;;;;;;;;;;24.00;46.10;;;;;;1533826;75;1948;-64
2021/06/09 01:56:55;;;;;;;;;;;24.00;46.20;;;;;;1529238;75;720;-64
2021/06/09 01:58:57;;;;;;;;;;;23.90;46.10;;;;;;1523595;75;741;-64
2021/06/09 02:00:59;;;;;;;;;;;24.00;46.00;;;;;;1530321;75;1161;-65
2021/06/09 02:03:01;;;;;;;;;;;23.90;46.00;;;;;;1527994;75;722;-67
2021/06/09 02:05:05;;;;;;;;;;;23.90;46.10;;;;;;1526110;75;729;-64
2021/06/09 02:07:06;;;;;;;;;;;24.00;46.00;;;;;;1528777;75;1687;-63
2021/06/09 02:09:09;;;;;;;;;;;23.90;46.00;;;;;;1525739;75;771;-63
2021/06/09 02:11:11;;;;;;;;;;;24.00;46.10;;;;;;1533211;75;1143;-63
2021/06/09 02:13:14;;;;;;;;;;;24.00;46.00;;;;;;1535999;75;735;-64
2021/06/09 02:15:16;;;;;;;;;;;23.90;45.80;;;;;;1516304;75;1945;-62
2021/06/09 02:17:18;;;;;;;;;;;23.90;45.90;;;;;;1532464;75;786;-63
2021/06/09 02:19:23;;;;;;;;;;;23.90;46.00;;;;;;1537701;76;779;-62
2021/06/09 02:21:23;;;;;;;;;;;23.90;45.90;;;;;;1535892;75;1641;-64
2021/06/09 02:23:27;;;;;;;;;;;24.00;45.90;;;;;;1537168;76;775;-63
2021/06/09 02:25:29;;;;;;;;;;;23.90;45.90;;;;;;1534110;75;731;-63
2021/06/09 02:27:32;;;;;;;;;;;23.90;45.90;;;;;;1533682;75;735;-63
2021/06/09 02:29:34;;;;;;;;;;;24.00;45.90;;;;;;1524539;75;1133;-63
2021/06/09 02:31:46;;;;;;;;;;;23.90;46.00;;;;;;1502265;77;801;-64
2021/06/09 02:33:48;;;;;;;;;;;23.90;45.90;;;;;;1537780;75;1944;-67
2021/06/09 02:35:50;;;;;;;;;;;23.90;46.00;;;;;;1526669;75;713;-65
2021/06/09 02:37:52;;;;;;;;;;;23.90;46.30;;;;;;1526664;75;785;-65
2021/06/09 02:39:54;;;;;;;;;;;23.90;46.10;;;;;;1531525;76;1174;-66
2021/06/09 02:41:56;;;;;;;;;;;23.90;46.20;;;;;;1533383;75;776;-67
2021/06/09 02:44:00;;;;;;;;;;;23.90;46.30;;;;;;1535289;75;711;-65
2021/06/09 02:46:05;;;;;;;;;;;23.90;46.10;;;;;;1532454;75;1663;-65
2021/06/09 02:48:11;;;;;;;;;;;23.90;46.30;;;;;;1528070;75;1504;-65
2021/06/09 02:50:13;;;;;;;;;;;23.90;46.20;;;;;;1528758;75;1209;-65
2021/06/09 02:52:24;;;;;;;;;;;23.90;46.20;;;;;;1528441;75;738;-66
2021/06/09 02:54:28;;;;;;;;;;;23.90;46.20;;;;;;1529982;75;1935;-67
2021/06/09 02:56:31;;;;;;;;;;;23.90;46.70;;;;;;1529784;75;1875;-65
2021/06/09 02:58:41;;;;;;;;;;;23.90;47.10;;;;;;1523954;77;2110;-64
2021/06/09 03:00:44;;;;;;;;;;;23.80;47.00;;;;;;1526336;75;1977;-67
2021/06/09 03:02:48;;;;;;;;;;;23.90;46.90;;;;;;1524656;75;1691;-64
2021/06/09 03:04:50;;;;;;;;;;;23.80;46.80;;;;;;1521994;75;792;-64
2021/06/09 03:06:53;;;;;;;;;;;23.90;46.70;;;;;;1532149;75;832;-65
2021/06/09 03:09:02;;;;;;;;;;;23.80;46.70;;;;;;1528142;75;778;-64
2021/06/09 03:11:16;;;;;;;;;;;23.90;46.80;;;;;;1531787;75;1143;-65
2021/06/09 03:13:24;;;;;;;;;;;23.90;46.50;;;;;;1527012;75;1728;-65
2021/06/09 03:15:22;;;;;;;;;;;23.90;46.70;;;;;;1533707;75;1910;-65
2021/06/09 03:17:25;;;;;;;;;;;23.90;46.80;;;;;;1536321;75;1861;-68
2021/06/09 03:19:29;;;;;;;;;;;23.80;46.70;;;;;;1531232;75;1944;-66
2021/06/09 03:21:32;;;;;;;;;;;23.90;46.80;;;;;;1526167;75;1610;-65
2021/06/09 03:23:52;;;;;;;;;;;23.90;47.00;;;;;;1522583;75;1053;-67
2021/06/09 03:25:56;;;;;;;;;;;23.90;46.80;;;;;;1525249;75;735;-65
2021/06/09 03:28:08;;;;;;;;;;;23.90;46.40;;;;;;1524953;75;814;-64
2021/06/09 03:30:10;;;;;;;;;;;23.90;46.60;;;;;;1499727;75;1651;-65
2021/06/09 03:32:13;;;;;;;;;;;23.90;46.60;;;;;;1519119;76;764;-65
2021/06/09 03:34:23;;;;;;;;;;;23.90;46.80;;;;;;1521864;75;1941;-63
2021/06/09 03:36:29;;;;;;;;;;;23.90;46.90;;;;;;1535842;75;755;-65
2021/06/09 03:38:32;;;;;;;;;;;23.90;46.80;;;;;;1531532;75;1643;-65
2021/06/09 03:40:34;;;;;;;;;;;23.90;46.80;;;;;;1532200;75;1220;-66
2021/06/09 03:42:36;;;;;;;;;;;23.90;46.80;;;;;;1535760;75;1026;-65
2021/06/09 03:44:39;;;;;;;;;;;23.90;46.70;;;;;;1528370;77;697;-63
2021/06/09 03:46:41;;;;;;;;;;;23.90;46.70;;;;;;1529544;75;951;-65
2021/06/09 03:48:44;;;;;;;;;;;23.90;46.90;;;;;;1539092;75;738;-65
2021/06/09 03:50:47;;;;;;;;;;;23.90;46.80;;;;;;1542402;75;1159;-65
2021/06/09 03:52:49;;;;;;;;;;;23.90;46.80;;;;;;1534146;75;791;-66
2021/06/09 03:54:57;;;;;;;;;;;23.90;46.70;;;;;;1534306;75;1947;-69
2021/06/09 03:56:59;;;;;;;;;;;23.90;47.00;;;;;;1528004;75;828;-65
2021/06/09 03:59:01;;;;;;;;;;;23.90;46.80;;;;;;1525399;75;719;-65
2021/06/09 04:01:03;;;;;;;;;;;23.90;46.90;;;;;;1530067;75;1150;-63
2021/06/09 04:03:05;;;;;;;;;;;23.90;46.80;;;;;;1528203;75;712;-65
2021/06/09 04:05:08;;;;;;;;;;;23.90;46.70;;;;;;1526264;75;941;-65
2021/06/09 04:07:09;;;;;;;;;;;23.90;46.80;;;;;;1532455;75;774;-64
2021/06/09 04:09:12;;;;;;;;;;;23.90;46.90;;;;;;1525767;75;793;-65
2021/06/09 04:11:15;;;;;;;;;;;23.90;46.70;;;;;;1536222;75;1099;-64
2021/06/09 04:13:17;;;;;;;;;;;23.90;46.90;;;;;;1530477;75;742;-63
2021/06/09 04:15:19;;;;;;;;;;;23.90;47.00;;;;;;1536766;75;1940;-65
2021/06/09 04:17:23;;;;;;;;;;;23.90;47.00;;;;;;1527644;75;800;-64
2021/06/09 04:19:25;;;;;;;;;;;23.90;46.90;;;;;;1526866;75;1818;-65
2021/06/09 04:21:26;;;;;;;;;;;23.90;46.80;;;;;;1537585;75;1135;-65
2021/06/09 04:23:29;;;;;;;;;;;24.00;46.90;;;;;;1528389;75;775;-65
2021/06/09 04:25:30;;;;;;;;;;;23.90;46.90;;;;;;1525263;75;747;-63
2021/06/09 04:27:34;;;;;;;;;;;24.00;46.80;;;;;;1534147;75;843;-67
2021/06/09 04:29:37;;;;;;;;;;;23.90;46.50;;;;;;1544583;75;1483;-64
2021/06/09 04:31:39;;;;;;;;;;;23.90;46.70;;;;;;1532216;75;763;-62
2021/06/09 04:33:44;;;;;;;;;;;23.90;46.50;;;;;;1532656;76;813;-66
2021/06/09 04:35:45;;;;;;;;;;;23.90;46.30;;;;;;1528265;77;1928;-64
2021/06/09 04:37:47;;;;;;;;;;;23.90;46.50;;;;;;1536520;75;747;-68
2021/06/09 04:41:49;;;;;;;;;;;23.90;47.10;;;;;;1543969;71;218389;-61
2021/06/09 04:43:52;;;;;;;;;;;23.90;47.10;;;;;;1493420;78;1275;-61
2021/06/09 04:45:54;;;;;;;;;;;23.90;47.00;;;;;;1523978;76;745;-63
2021/06/09 04:47:56;;;;;;;;;;;24.00;46.90;;;;;;1531234;76;807;-61
2021/06/09 04:49:58;;;;;;;;;;;23.90;46.50;;;;;;1534744;76;791;-62
2021/06/09 04:52:00;;;;;;;;;;;23.90;47.10;;;;;;1530273;76;1130;-62
2021/06/09 04:54:04;;;;;;;;;;;23.90;47.30;;;;;;1530061;76;833;-62
2021/06/09 04:56:06;;;;;;;;;;;23.90;47.40;;;;;;1528905;76;1914;-60
2021/06/09 04:58:08;;;;;;;;;;;23.90;47.60;;;;;;1527325;76;719;-59
2021/06/09 05:00:13;;;;;;;;;;;23.90;47.70;;;;;;1528089;76;821;-60
2021/06/09 05:02:18;;;;;;;;;;;24.00;47.50;;;;;;1526833;76;1125;-60
2021/06/09 05:04:19;;;;;;;;;;;23.90;47.60;;;;;;1517738;76;1674;-60
2021/06/09 05:06:21;;;;;;;;;;;23.90;47.60;;;;;;1518809;77;759;-64
2021/06/09 05:08:23;;;;;;;;;;;23.90;47.70;;;;;;1528197;76;818;-60
2021/06/09 05:10:25;;;;;;;;;;;24.00;47.70;;;;;;1523077;76;1143;-59
2021/06/09 05:12:29;;;;;;;;;;;24.00;47.70;;;;;;1522841;76;813;-62
2021/06/09 05:14:38;;;;;;;;;;;23.90;47.40;;;;;;1523547;77;989;-58
2021/06/09 05:16:40;;;;;;;;;;;23.90;47.40;;;;;;1526638;77;766;-60
2021/06/09 05:18:42;;;;;;;;;;;24.00;47.60;;;;;;1521236;77;765;-64
2021/06/09 05:20:44;;;;;;;;;;;24.00;47.40;;;;;;1518531;77;1077;-61
2021/06/09 05:22:54;;;;;;;;;;;24.00;47.50;;;;;;1521216;77;768;-60
2021/06/09 05:24:56;;;;;;;;;;;24.00;47.60;;;;;;1531100;76;725;-61
2021/06/09 05:26:57;;;;;;;;;;;24.00;47.60;;;;;;1531154;76;788;-60
2021/06/09 05:29:01;;;;;;;;;;;24.00;47.60;;;;;;1528969;77;715;-59
2021/06/09 05:31:03;;;;;;;;;;;23.90;47.90;;;;;;1526014;76;1765;-62
2021/06/09 05:33:05;;;;;;;;;;;24.00;48.00;;;;;;1530009;76;760;-59
2021/06/09 05:35:07;;;;;;;;;;;24.00;48.70;;;;;;1530554;77;1914;-61
2021/06/09 05:37:09;;;;;;;;;;;24.10;48.90;;;;;;1531466;77;850;-61
2021/06/09 05:39:11;;;;;;;;;;;24.00;48.70;;;;;;1529959;77;719;-61
2021/06/09 05:41:13;;;;;;;;;;;24.00;49.10;;;;;;1527998;76;1167;-61
2021/06/09 05:43:20;;;;;;;;;;;24.00;49.20;;;;;;1537260;76;742;-62
2021/06/09 05:45:31;;;;;;;;;;;24.00;49.00;;;;;;1539666;76;821;-59
2021/06/09 05:47:35;;;;;;;;;;;24.10;49.00;;;;;;1534681;76;839;-59
2021/06/09 05:49:37;;;;;;;;;;;24.10;49.10;;;;;;1534559;76;1685;-61
2021/06/09 05:51:38;;;;;;;;;;;24.10;49.00;;;;;;1539890;76;1157;-59
2021/06/09 05:53:40;;;;;;;;;;;24.00;49.30;;;;;;1538328;76;776;-60
2021/06/09 05:55:42;;;;;;;;;;;24.00;49.60;;;;;;1513910;77;1945;-59
2021/06/09 05:57:45;;;;;;;;;;;24.00;49.40;;;;;;1508928;77;1371;-60
2021/06/09 05:59:46;;;;;;;;;;;24.00;49.10;;;;;;1504564;76;759;-60
2021/06/09 06:01:48;;;;;;;;;;;24.10;49.00;;;;;;1511248;76;1147;-60
2021/06/09 06:03:50;;;;;;;;;;;24.10;48.90;;;;;;1482901;78;1200;-59
2021/06/09 06:05:58;;;;;;;;;;;24.10;48.90;;;;;;1569617;74;823;-60
2021/06/09 06:08:00;;;;;;;;;;;24.10;48.80;;;;;;1559443;74;794;-59
2021/06/09 06:10:03;;;;;;;;;;;24.10;48.60;;;;;;1574390;74;718;-59
2021/06/09 06:12:06;;;;;;;;;;;24.10;48.60;;;;;;1576447;74;1120;-60
2021/06/09 06:14:10;;;;;;;;;;;24.10;48.70;;;;;;1563159;74;688;-60
2021/06/09 06:16:15;;;;;;;;;;;24.10;48.60;;;;;;1581763;74;1933;-59
2021/06/09 06:18:17;;;;;;;;;;;24.10;48.50;;;;;;1569762;74;787;-60
2021/06/09 06:20:20;;;;;;;;;;;24.10;48.40;;;;;;1551917;75;1208;-59
2021/06/09 06:22:22;;;;;;;;;;;24.10;48.40;;;;;;1572163;74;709;-59
2021/06/09 06:24:24;;;;;;;;;;;24.10;48.40;;;;;;1577264;74;776;-59
2021/06/09 06:26:26;;;;;;;;;;;24.20;48.30;;;;;;1562888;74;804;-59
2021/06/09 06:28:28;;;;;;;;;;;24.10;48.40;;;;;;1563376;74;733;-58
2021/06/09 06:30:29;;;;;;;;;;;24.20;48.40;;;;;;1589657;74;1080;-60
2021/06/09 06:32:31;;;;;;;;;;;24.20;48.40;;;;;;1561888;74;759;-59
2021/06/09 06:34:37;;;;;;;;;;;24.20;48.30;;;;;;1568432;74;730;-59
2021/06/09 06:36:39;;;;;;;;;;;24.10;48.40;;;;;;1570266;74;1922;-59
2021/06/09 06:38:41;;;;;;;;;;;24.20;48.40;;;;;;1550022;76;848;-59
2021/06/09 06:40:43;;;;;;;;;;;24.20;48.30;;;;;;1574866;74;1163;-60
2021/06/09 06:42:45;;;;;;;;;;;24.20;48.20;;;;;;1576317;74;736;-59
2021/06/09 06:44:47;;;;;;;;;;;24.10;48.70;;;;;;1567355;74;627;-60
2021/06/09 06:46:49;;;;;;;;;;;24.30;48.60;;;;;;1565259;74;620;-59
2021/06/09 06:48:57;;;;;;;;;;;24.30;48.50;;;;;;1571564;74;659;-59
2021/06/09 06:50:55;;;;;;;;;;;24.40;48.30;;;;;;1563549;74;1402;-60
2021/06/09 06:52:57;;;;;;;;;;;24.60;48.20;;;;;;1567731;74;727;-60
2021/06/09 06:55:00;;;;;;;;;;;24.60;48.10;;;;;;1581031;74;785;-59
2021/06/09 06:57:01;;;;;;;;;;;24.60;47.80;;;;;;1570691;74;1936;-59
2021/06/09 06:59:03;;;;;;;;;;;24.60;47.80;;;;;;1569778;74;681;-59
2021/06/09 07:01:05;;;;;;;;;;;24.80;47.80;;;;;;1568840;74;1108;-60
2021/06/09 07:03:08;;;;;;;;;;;24.80;47.70;;;;;;1572937;74;829;-59
2021/06/09 07:05:10;;;;;;;;;;;24.80;47.50;;;;;;1569264;74;800;-59
2021/06/09 07:07:12;;;;;;;;;;;24.90;47.40;;;;;;1572490;74;763;-59
2021/06/09 07:09:14;;;;;;;;;;;24.80;47.30;;;;;;1573866;74;746;-59
2021/06/09 07:11:16;;;;;;;;;;;24.90;47.30;;;;;;1565130;74;1135;-59
2021/06/09 07:13:18;;;;;;;;;;;24.90;47.30;;;;;;1578254;74;729;-60
2021/06/09 07:15:20;;;;;;;;;;;24.90;47.30;;;;;;1564073;74;1945;-58
2021/06/09 07:17:22;;;;;;;;;;;25.00;47.30;;;;;;1575870;74;776;-59
2021/06/09 07:19:24;;;;;;;;;;;25.00;47.10;;;;;;1574245;74;804;-59
2021/06/09 07:21:26;;;;;;;;;;;25.00;47.10;;;;;;1570107;74;1152;-60
2021/06/09 07:23:27;;;;;;;;;;;25.10;47.00;;;;;;1567992;74;809;-59
2021/06/09 07:25:30;;;;;;;;;;;25.10;47.00;;;;;;1556738;74;672;-59
2021/06/09 07:27:35;;;;;;;;;;;25.00;46.70;;;;;;1571935;74;732;-58
2021/06/09 07:29:37;;;;;;;;;;;25.00;46.70;;;;;;1553314;74;798;-59
2021/06/09 07:31:40;;;;;;;;;;;25.00;46.80;;;;;;1572563;74;1106;-59
2021/06/09 07:33:41;;;;;;;;;;;25.10;46.90;;;;;;1563878;74;834;-59
2021/06/09 07:35:43;;;;;;;;;;;25.10;46.30;;;;;;1570186;74;1942;-59
2021/06/09 07:37:46;;;;;;;;;;;25.10;46.40;;;;;;1579247;74;762;-60
2021/06/09 07:39:56;;;;;;;;;;;25.10;46.50;;;;;;1566725;74;779;-59
2021/06/09 07:42:00;;;;;;;;;;;25.10;46.50;;;;;;1569760;74;1155;-59
2021/06/09 07:44:03;;;;;;;;;;;25.20;46.60;;;;;;1572292;74;729;-59
2021/06/09 07:46:06;;;;;;;;;;;25.10;46.50;;;;;;1569497;74;706;-59
2021/06/09 07:48:08;;;;;;;;;;;25.30;46.50;;;;;;1579401;74;1897;-60
2021/06/09 07:50:12;;;;;;;;;;;25.10;46.60;;;;;;1576593;74;810;-60
2021/06/09 07:52:14;;;;;;;;;;;25.10;46.70;;;;;;1574092;74;1636;-59
2021/06/09 07:54:16;;;;;;;;;;;25.10;46.70;;;;;;1570323;74;805;-60
2021/06/09 07:56:18;;;;;;;;;;;25.30;46.70;;;;;;1569761;74;1908;-59
2021/06/09 07:58:21;;;;;;;;;;;25.20;46.60;;;;;;1564159;74;687;-60
2021/06/09 08:00:23;;;;;;;;;;;25.10;46.70;;;;;;1569509;74;1113;-59
2021/06/09 08:02:25;;;;;;;;;;;25.10;46.80;;;;;;1568082;74;714;-60
2021/06/09 08:04:27;;;;;;;;;;;25.10;46.50;;;;;;1567589;74;766;-59
2021/06/09 08:06:29;;;;;;;;;;;25.10;46.30;;;;;;1559643;74;726;-59
2021/06/09 08:08:31;;;;;;;;;;;25.20;46.00;;;;;;1577598;74;687;-59
2021/06/09 08:10:33;;;;;;;;;;;25.20;46.10;;;;;;1570148;74;1120;-59
2021/06/09 08:12:35;;;;;;;;;;;25.20;45.80;;;;;;1568821;74;721;-60
2021/06/09 08:14:38;;;;;;;;;;;25.10;46.00;;;;;;1573740;74;894;-58
2021/06/09 08:16:40;;;;;;;;;;;25.10;46.30;;;;;;1574768;74;1907;-60
2021/06/09 08:18:42;;;;;;;;;;;25.20;46.40;;;;;;1575868;74;722;-60
2021/06/09 08:20:48;;;;;;;;;;;25.10;46.20;;;;;;1564383;74;1124;-60
2021/06/09 08:22:50;;;;;;;;;;;25.10;46.30;;;;;;1562622;74;1948;-59
2021/06/09 08:24:52;;;;;;;;;;;25.10;46.50;;;;;;1568103;74;783;-59
2021/06/09 08:27:01;;;;;;;;;;;25.20;46.20;;;;;;1572092;75;772;-58
2021/06/09 08:28:57;;;;;;;;;;;25.20;46.00;;;;;;1568948;74;1648;-58
2021/06/09 08:31:00;;;;;;;;;;;25.10;46.30;;;;;;1570697;74;1140;-59
2021/06/09 08:33:02;;;;;;;;;;;25.10;46.40;;;;;;1569140;74;712;-59
2021/06/09 08:35:07;;;;;;;;;;;25.00;46.80;;;;;;1559568;74;746;-60
2021/06/09 08:37:09;;;;;;;;;;;25.00;46.70;;;;;;1573145;74;1938;-59
2021/06/09 08:39:11;;;;;;;;;;;25.10;46.60;;;;;;1571917;74;910;-58
2021/06/09 08:41:14;;;;;;;;;;;25.10;46.30;;;;;;1571856;74;1120;-60
2021/06/09 08:43:17;;;;;;;;;;;25.20;46.20;;;;;;1576970;74;794;-58
2021/06/09 08:45:19;;;;;;;;;;;25.10;46.00;;;;;;1559964;74;743;-59
2021/06/09 08:47:25;;;;;;;;;;;25.20;46.00;;;;;;1567816;74;794;-59
2021/06/09 08:49:24;;;;;;;;;;;25.20;45.90;;;;;;1564274;74;1592;-59
2021/06/09 08:51:27;;;;;;;;;;;25.10;46.20;;;;;;1567720;74;1136;-59
2021/06/09 08:53:29;;;;;;;;;;;25.20;46.60;;;;;;1574129;74;940;-58
2021/06/09 08:55:31;;;;;;;;;;;25.10;46.50;;;;;;1565220;74;745;-59
2021/06/09 08:57:33;;;;;;;;;;;25.20;46.30;;;;;;1565198;75;1936;-60
2021/06/09 08:59:35;;;;;;;;;;;25.20;46.20;;;;;;1569885;74;765;-59
2021/06/09 09:01:37;;;;;;;;;;;25.20;46.20;;;;;;1577894;75;1116;-59
2021/06/09 09:03:39;;;;;;;;;;;25.10;46.20;;;;;;1577676;74;780;-58
2021/06/09 09:05:41;;;;;;;;;;;25.10;46.30;;;;;;1561589;74;724;-59
2021/06/09 09:07:43;;;;;;;;;;;25.20;46.40;;;;;;1578375;74;743;-60
2021/06/09 09:09:45;;;;;;;;;;;25.10;46.90;;;;;;1578653;74;723;-58
2021/06/09 09:11:47;;;;;;;;;;;25.00;47.10;;;;;;1578055;74;1156;-57
2021/06/09 09:13:49;;;;;;;;;;;24.90;47.30;;;;;;1563934;74;764;-59
2021/06/09 09:15:51;;;;;;;;;;;25.00;47.10;;;;;;1568015;74;727;-60
2021/06/09 09:17:53;;;;;;;;;;;25.00;47.30;;;;;;1567385;74;1910;-60
2021/06/09 09:19:57;;;;;;;;;;;25.00;47.30;;;;;;1569542;74;710;-59
2021/06/09 09:21:59;;;;;;;;;;;25.10;47.10;;;;;;1566985;74;1909;-60
2021/06/09 09:24:04;;;;;;;;;;;25.10;47.00;;;;;;1568057;74;743;-58
2021/06/09 09:26:24;;;;;;;;;;;25.10;47.10;;;;;;1565876;74;1703;-59
2021/06/09 09:28:30;;;;;;;;;;;25.10;47.00;;;;;;1564654;74;1816;-61
2021/06/09 09:30:38;;;;;;;;;;;25.10;47.20;;;;;;1579092;74;1135;-59
2021/06/09 09:32:40;;;;;;;;;;;25.10;46.90;;;;;;1564201;74;1768;-59
2021/06/09 09:34:43;;;;;;;;;;;25.10;46.90;;;;;;1558981;74;1219;-58
2021/06/09 09:36:45;;;;;;;;;;;25.20;46.80;;;;;;1556419;74;1907;-60
2021/06/09 09:38:47;;;;;;;;;;;25.10;46.80;;;;;;1570645;74;846;-59
2021/06/09 09:41:07;;;;;;;;;;;25.00;47.40;;;;;;1556685;74;1212;-58
2021/06/09 09:43:09;;;;;;;;;;;24.90;47.80;;;;;;1571505;74;851;-60
2021/06/09 09:45:15;;;;;;;;;;;25.00;47.70;;;;;;1567731;74;677;-59
2021/06/09 09:47:18;;;;;;;;;;;25.10;47.40;;;;;;1570484;74;731;-59
2021/06/09 09:49:20;;;;;;;;;;;25.00;47.40;;;;;;1567009;74;750;-60
2021/06/09 09:51:24;;;;;;;;;;;25.00;47.60;;;;;;1572660;74;1157;-59
2021/06/09 09:53:30;;;;;;;;;;;25.00;47.80;;;;;;1569798;74;1513;-60
2021/06/09 09:55:32;;;;;;;;;;;24.90;47.80;;;;;;1575049;74;768;-59
2021/06/09 09:57:36;;;;;;;;;;;25.00;47.90;;;;;;1564737;74;1942;-60
2021/06/09 09:59:37;;;;;;;;;;;25.00;47.70;;;;;;1570861;75;916;-60
2021/06/09 10:01:39;;;;;;;;;;;25.00;47.50;;;;;;1568877;74;1066;-59
2021/06/09 10:03:42;;;;;;;;;;;25.10;47.50;;;;;;1574871;74;940;-59
2021/06/09 10:05:44;;;;;;;;;;;25.00;47.40;;;;;;1561619;74;775;-59
2021/06/09 10:07:50;;;;;;;;;;;25.00;47.40;;;;;;1571297;74;682;-60
2021/06/09 10:09:53;;;;;;;;;;;25.00;47.70;;;;;;1579202;74;1827;-59
2021/06/09 10:11:58;;;;;;;;;;;25.10;47.80;;;;;;1561316;74;1155;-58
2021/06/09 10:14:00;;;;;;;;;;;24.90;47.90;;;;;;1576950;74;765;-59
2021/06/09 10:16:02;;;;;;;;;;;24.90;47.90;;;;;;1568547;74;826;-60
2021/06/09 10:18:20;;;;;;;;;;;24.90;48.00;;;;;;1565374;74;1926;-59
2021/06/09 10:20:22;;;;;;;;;;;24.80;48.00;;;;;;1563631;74;1156;-59
2021/06/09 10:22:25;;;;;;;;;;;24.70;47.70;;;;;;1542161;75;1047;-58
2021/06/09 10:24:27;;;;;;;;;;;24.70;47.80;;;;;;1566868;74;729;-57
2021/06/09 10:26:29;;;;;;;;;;;24.80;47.60;;;;;;1576557;74;755;-57
2021/06/09 10:28:32;;;;;;;;;;;24.80;47.60;;;;;;1574652;74;1067;-58
2021/06/09 10:30:34;;;;;;;;;;;24.90;47.50;;;;;;1555720;74;1134;-59
2021/06/09 10:32:36;;;;;;;;;;;24.80;47.30;;;;;;1575184;74;764;-58
2021/06/09 10:34:38;;;;;;;;;;;24.80;47.50;;;;;;1570226;74;819;-59
2021/06/09 10:36:42;;;;;;;;;;;24.80;47.40;;;;;;1571144;74;1943;-58
2021/06/09 10:38:44;;;;;;;;;;;24.90;47.30;;;;;;1569983;74;787;-58
2021/06/09 10:40:46;;;;;;;;;;;25.00;47.40;;;;;;1571327;73;219179;-65
2021/06/09 10:42:48;;;;;;;;;;;24.90;47.30;;;;;;1561209;76;607;-64
2021/06/09 10:44:51;;;;;;;;;;;25.00;47.40;;;;;;1557907;75;800;-65
2021/06/09 10:46:56;;;;;;;;;;;25.00;47.60;;;;;;1551248;76;733;-64
2021/06/09 10:49:00;;;;;;;;;;;24.90;47.60;;;;;;1551464;75;1347;-65
2021/06/09 10:51:02;;;;;;;;;;;24.90;47.70;;;;;;1557444;75;1204;-65
2021/06/09 10:53:06;;;;;;;;;;;25.00;47.80;;;;;;1558013;75;721;-67
2021/06/09 10:55:08;;;;;;;;;;;25.00;47.80;;;;;;1557197;75;1620;-64
2021/06/09 10:57:11;;;;;;;;;;;25.00;47.60;;;;;;1558471;75;1924;-65
2021/06/09 10:59:14;;;;;;;;;;;24.90;47.60;;;;;;1559668;75;694;-66
2021/06/09 11:01:16;;;;;;;;;;;25.00;47.80;;;;;;1559158;76;1109;-66
2021/06/09 11:03:18;;;;;;;;;;;25.00;47.50;;;;;;1558398;76;770;-64
2021/06/09 11:05:20;;;;;;;;;;;25.00;47.40;;;;;;1560750;75;775;-65
2021/06/09 11:07:28;;;;;;;;;;;25.10;47.40;;;;;;1557786;75;709;-65
2021/06/09 11:09:30;;;;;;;;;;;25.10;47.30;;;;;;1559165;75;781;-65
2021/06/09 11:11:32;;;;;;;;;;;25.10;47.20;;;;;;1515608;77;1218;-65
2021/06/09 11:13:35;;;;;;;;;;;25.10;47.20;;;;;;1556795;75;742;-65
2021/06/09 11:15:39;;;;;;;;;;;25.10;47.10;;;;;;1558157;76;894;-66
2021/06/09 11:17:41;;;;;;;;;;;25.10;47.00;;;;;;1558250;75;1935;-65
2021/06/09 11:19:45;;;;;;;;;;;25.10;47.00;;;;;;1560157;76;782;-65
2021/06/09 11:21:47;;;;;;;;;;;25.10;46.90;;;;;;1558745;75;1082;-61
2021/06/09 11:23:49;;;;;;;;;;;25.20;47.00;;;;;;1558313;75;822;-64
2021/06/09 11:25:51;;;;;;;;;;;25.10;46.90;;;;;;1559307;76;850;-65
2021/06/09 11:27:54;;;;;;;;;;;25.10;46.90;;;;;;1558411;75;813;-65
2021/06/09 11:29:56;;;;;;;;;;;25.10;46.80;;;;;;1555076;75;700;-65
2021/06/09 11:32:16;;;;;;;;;;;25.10;46.90;;;;;;1555013;75;1181;-65
2021/06/09 11:34:18;;;;;;;;;;;25.10;46.90;;;;;;1559995;75;748;-66
2021/06/09 11:36:21;;;;;;;;;;;25.10;46.90;;;;;;1557134;75;811;-66
2021/06/09 11:38:25;;;;;;;;;;;25.00;47.00;;;;;;1533916;77;1933;-66
2021/06/09 11:40:27;;;;;;;;;;;25.00;46.80;;;;;;1535796;77;1861;-67
2021/06/09 11:42:29;;;;;;;;;;;25.00;46.90;;;;;;1496111;78;1321;-67
2021/06/09 11:44:34;;;;;;;;;;;25.00;47.10;;;;;;1572112;75;661;-65
2021/06/09 11:46:37;;;;;;;;;;;25.00;47.30;;;;;;1572798;75;793;-67
2021/06/09 11:48:39;;;;;;;;;;;24.90;47.10;;;;;;1568334;75;840;-66
2021/06/09 11:50:41;;;;;;;;;;;24.90;47.20;;;;;;1571086;75;1140;-66
2021/06/09 11:53:12;;;;;;;;;;;24.80;47.10;;;;;;1564141;75;745;-68
2021/06/09 11:55:09;;;;;;;;;;;24.80;47.30;;;;;;1558982;75;1700;-67
2021/06/09 11:57:22;;;;;;;;;;;24.80;47.10;;;;;;1573059;75;1910;-64
2021/06/09 11:59:26;;;;;;;;;;;24.70;47.30;;;;;;1562839;75;815;-67
2021/06/09 12:01:44;;;;;;;;;;;24.80;47.50;;;;;;1573947;75;1135;-67
2021/06/09 12:03:46;;;;;;;;;;;24.80;47.80;;;;;;1572036;75;794;-67
2021/06/09 12:05:48;;;;;;;;;;;24.80;47.10;;;;;;1571670;75;660;-67
2021/06/09 12:07:50;;;;;;;;;;;24.60;47.30;;;;;;1573996;75;751;-67
2021/06/09 12:09:53;;;;;;;;;;;24.50;47.00;;;;;;1572628;75;818;-67
2021/06/09 12:11:56;;;;;;;;;;;24.60;47.30;;;;;;1570788;75;1081;-66
2021/06/09 12:13:58;;;;;;;;;;;24.70;47.40;;;;;;1571529;75;751;-67
2021/06/09 12:16:06;;;;;;;;;;;24.80;47.40;;;;;;1573549;75;721;-67